Tiempo atmosférico en la estación meteorológica de Puebla De Obando, Badajoz (392 m.)



Fecha
DESCASC
Temp. máxima en grados centígrados (hora)
DESCASC
Temp. mínima en grados centígrados (hora)
DESCASC
Temp. media en grados centígrados
DESCASC
Racha de viento máxima en m/sg (hora)
DESCASC
Velocidad máxima media en intervalos de 10 minutos(hora)
DESCASC
Precipitaciones diarias en mm
DESCASC
Precipitaciones de 00:00 a 06:00 en mm
DESCASC
Precipitaciones de 06:00 a 12:00 en mm
DESCASC
Precipitaciones de 12:00 a 18:00 en mm
DESCASC
Precipitaciones de 18:00 a 24:00 en mm
DESCASC
19-09-2019 29.9 (17:10) 13.5 (08:20) 21.7 6.94 (15:50) 3.89 (15:30) 0 0 0 0 0
18-09-2019 30.3 (17:50) 15.1 (07:40) 22.7 6.39 (14:00) 4.17 (22:20) 0 0 0 0 0
17-09-2019 32 (17:20) 16.1 (00:00) 24.1 10 (22:00) 6.67 (22:10) 0 0 0 0 0
16-09-2019 31 (17:30) 15.3 (00:00) 23.2 8.61 (16:10) 5 (16:10) 0 0 0 0 0
15-09-2019 27.9 (17:10) 14.4 (00:00) 21.1 4.44 (09:20) 3.06 (09:20) 0 0 0 0 0
14-09-2019 26.2 (17:10) 16.6 (00:00) 21.4 9.44 (13:00) 6.67 (12:20) 0.2 0 0 0.2 0
13-09-2019 25.9 (11:30) 19.7 (00:00) 22.8 16.11 (14:50) 10.28 (14:50) 0 0 0 0 0
12-09-2019 30.7 (15:10) 15.4 (00:00) 23.1 15.28 (19:10) 10 (19:10) 0 0 0 0 0
11-09-2019 28.5 (17:40) 13.9 (00:00) 21.2 10 (18:20) 5.56 (18:20) 0 0 0 0 0
10-09-2019 25.5 (17:00) 13.1 (05:30) 19.3 13.89 (11:30) 8.61 (10:20) 0 0 0 0 0
09-09-2019 30.9 (15:20) 13.2 (08:10) 22 15 (17:10) 10.83 (17:10) 0 0 0 0 0
08-09-2019 32.9 (17:00) 15.1 (00:00) 24 8.89 (16:50) 5.28 (16:50) 0 0 0 0 0
07-09-2019 33.3 (18:00) 16.9 (00:00) 25.1 7.22 (09:00) 5 (10:00) 0 0 0 0 0
06-09-2019 32.4 (16:20) 17.6 (00:00) 25 8.06 (12:10) 5.28 (04:10) 0 0 0 0 0
05-09-2019 35.3 (15:30) 19.3 (00:00) 27.3 10.28 (16:40) 6.11 (10:20) 0 0 0 0 0
04-09-2019 37.8 (16:50) 21.2 (00:00) 29.5 10.28 (17:50) 6.11 (16:20) 0 0 0 0 0
03-09-2019 37.2 (17:30) 18.6 (00:00) 27.9 7.5 (15:30) 4.17 (17:00) 0 0 0 0 0
02-09-2019 36 (18:00) 18.5 (00:00) 27.3 8.61 (15:40) 4.72 (15:00) 0 0 0 0 0
01-09-2019 36.4 (17:10) 17.1 (00:00) 26.8 8.61 (17:20) 4.17 (20:20) 0 0 0 0 0
31-08-2019 36.2 (16:30) 20.4 (00:00) 28.3 7.78 (18:40) 5 (22:30) 0 0 0 0 0
30-08-2019 36.4 (16:40) 18.1 (00:00) 27.3 8.61 (16:40) 4.72 (17:20) 0 0 0 0 0
29-08-2019 36 (17:20) 20 (00:00) 28 10.28 (17:40) 4.44 (22:40) 0 0 0 0 0
28-08-2019 33.9 (17:30) 15.5 (00:00) 24.7 6.67 (13:50) 4.17 (15:00) 0 0 0 0 0
27-08-2019 31.9 (17:40) 14.4 (00:00) 23.1 8.33 (14:30) 5 (18:10) 0.2 0 0.2 0 0
26-08-2019 31.1 (17:40) 18.5 (00:00) 24.8 13.33 (18:30) 9.17 (18:40) 0.4 0 0 0 0.4
25-08-2019 34.1 (17:40) 16.4 (00:00) 25.2 9.44 (17:00) 5.56 (23:50) 0 0 0 0 0
24-08-2019 37.2 (16:20) 20 (00:00) 28.6 10.83 (16:30) 4.72 (03:10) 0 0 0 0 0
23-08-2019 36.6 (18:40) 18.3 (00:00) 27.4 7.5 (10:10) 5 (10:40) 0 0 0 0 0

Gráficas

Temp. máximas Temp. mínimas Temp. medias Precipitaciones Rachas de viento máximas Velocidades máximas media en intervalos de 10 minutos

Datos horarios

Fecha y hora oficial Temperatura (ºC) Velocidad del viento (km/h) Dirección del viento Racha (km/h) Dirección de racha Precipitación (mm) Presión (hPa) Tendencia (hPa) Humedad (%)
2019-09-21 23:00:00 18.5 16 Sudoeste 42 Sudoeste 0.8 -- -- 94
2019-09-21 22:00:00 19.6 22 Sudoeste 42 Sudoeste 0.8 -- -- 88
2019-09-21 21:00:00 20.5 16 Sur 39 Sudoeste 0 -- -- 83
2019-09-21 20:00:00 20.8 15 Sur 34 Sur 1 -- -- 82
2019-09-21 19:00:00 21.8 18 Sudoeste 34 Sudoeste 0 -- -- 76
2019-09-21 18:00:00 21 14 Sur 29 Sudoeste 0 -- -- 82
2019-09-21 17:00:00 20.6 16 Sudoeste 37 Sudoeste 0 -- -- 90
2019-09-21 16:00:00 19.2 23 Sudoeste 41 Sudoeste 0.2 -- -- 95
2019-09-21 15:00:00 18.2 14 Sudoeste 26 Sur 2.6 -- -- 99
2019-09-21 14:00:00 17.1 12 Sur 24 Sur 1.2 -- -- 98
2019-09-21 13:00:00 16.3 13 Sudeste 19 Sudeste 2.4 -- -- 98
2019-09-21 12:00:00 16 12 Sur 22 Sudeste 1.6 -- -- 97
2019-09-21 11:00:00 16 15 Sur 29 Sur 2.2 -- -- 93
2019-09-21 10:00:00 16.5 16 Sur 30 Sur 1.2 -- -- 87
2019-09-21 09:00:00 17.4 9 Sudeste 12 Sudeste 0 -- -- 83
2019-09-21 08:00:00 17.8 8 Sudeste 19 Sur 0 -- -- 77
2019-09-21 07:00:00 17.7 11 Sur 19 Sur 0 -- -- 78
2019-09-21 06:00:00 17.8 12 Sur 21 Sur 0 -- -- 80
2019-09-21 05:00:00 17.6 10 Sur 16 Sur 0 -- -- 78
2019-09-21 04:00:00 18.4 9 Sur 16 Sudoeste 0 -- -- 73
2019-09-21 03:00:00 18.5 11 Sudoeste 19 Sudoeste 0 -- -- 72
2019-09-21 02:00:00 18.9 11 Sudoeste 18 Sudoeste 0 -- -- 68
2019-09-21 01:00:00 18.7 12 Sudoeste 19 Sudoeste 0 -- -- 66
2019-09-21 00:00:00 19.6 13 Sudoeste 25 Sur 0 -- -- 63
2019-09-20 23:00:00 19.7 10 Sudoeste 19 Sudoeste 0 -- -- 61
2019-09-20 22:00:00 20.3 10 Sudoeste 22 Sudoeste 0 -- -- 58
2019-09-20 21:00:00 21 14 Oeste 22 Oeste 0 -- -- 57
2019-09-20 20:00:00 22.5 12 Sudoeste 26 Oeste 0 -- -- 52
2019-09-20 19:00:00 22.2 18 Sudoeste 26 Oeste 0 -- -- 56
2019-09-20 18:00:00 22.8 15 Sudoeste 28 Sudoeste 0 -- -- 61
2019-09-20 17:00:00 24.9 20 Oeste 30 Oeste 0 -- -- 48
2019-09-20 16:00:00 25.8 19 Oeste 33 Sudoeste 0 -- -- 47
2019-09-20 15:00:00 26.1 19 Sudoeste 32 Sudoeste 0 -- -- 42
2019-09-20 14:00:00 24.5 21 Sudoeste 32 Sudoeste 0 -- -- 46
2019-09-20 13:00:00 24.1 17 Sur 28 Sur 0 -- -- 51
2019-09-20 12:00:00 23.5 14 Sur 24 Sur 0 -- -- 54
2019-09-20 11:00:00 21.3 7 Sudeste 14 Sudeste 0 -- -- 64
2019-09-20 10:00:00 19 4 Sur 8 Sudeste 0 -- -- 73
2019-09-20 09:00:00 16 3 Sudeste 13 Sudeste 0 -- -- 83
2019-09-20 08:00:00 15.4 7 Sudeste 9 Sudeste 0 -- -- 86
2019-09-20 07:00:00 15.5 4 Sudeste 5 Sudeste 0 -- -- 83
2019-09-20 06:00:00 15.2 4 Este 8 Sudeste 0 -- -- 80
2019-09-20 05:00:00 15.2 0 Calma 5 Sur 0 -- -- 74
2019-09-20 04:00:00 16.9 4 Nordeste 10 Oeste 0 -- -- 71
2019-09-20 03:00:00 18.1 0 Calma 8 Sudoeste 0 -- -- 65
2019-09-20 02:00:00 19.2 2 Noroeste 10 Oeste 0 -- -- 61
2019-09-20 01:00:00 20.6 8 Noroeste 11 Oeste 0 -- -- 59
2019-09-20 00:00:00 21.2 9 Noroeste 10 Oeste 0 -- -- 56
2019-09-19 23:00:00 22.6 11 Oeste 20 Oeste 0 -- -- 52
2019-09-19 22:00:00 24 13 Oeste 19 Oeste 0 -- -- 41
2019-09-19 21:00:00 24.6 8 Oeste 12 Oeste 0 -- -- 42
2019-09-19 20:00:00 26.9 8 Oeste 17 Oeste 0 -- -- 38
2019-09-19 19:00:00 28.4 10 Sudoeste 23 Sudoeste 0 -- -- 28
2019-09-19 18:00:00 29.7 8 Sudoeste 23 Sur 0 -- -- 32
2019-09-19 17:00:00 29.6 10 Sudoeste 21 Sudoeste 0 -- -- 35
2019-09-19 16:00:00 29.1 9 Oeste 25 Sudoeste 0 -- -- 35
2019-09-19 15:00:00 28.5 11 Sudoeste 22 Sudoeste 0 -- -- 37
2019-09-19 14:00:00 27.5 8 Sudoeste 19 Sudoeste 0 -- -- 41
2019-09-19 13:00:00 26.1 10 Oeste 16 Oeste 0 -- -- 47
2019-09-19 12:00:00 24.9 6 Oeste 12 Oeste 0 -- -- 49
2019-09-19 11:00:00 22.3 5 Este 9 Este 0 -- -- 60
2019-09-19 10:00:00 18.7 3 Este 6 Nordeste 0 -- -- 73
2019-09-19 09:00:00 14.4 3 Sur 6 Sur 0 -- -- 86
2019-09-19 08:00:00 13.8 3 Este 5 Este 0 -- -- 89
2019-09-19 07:00:00 14.9 3 Este 7 Este 0 -- -- 86
2019-09-19 06:00:00 14.7 4 Sudeste 6 Sudeste 0 -- -- 78
2019-09-19 05:00:00 14.9 4 Sudeste 6 Sudeste 0 -- -- 81
2019-09-19 04:00:00 15 0 Calma 4 Noroeste 0 -- -- 73
2019-09-19 03:00:00 16.5 0 Calma 5 Oeste 0 -- -- 69
2019-09-19 02:00:00 18.1 3 Noroeste 11 Oeste 0 -- -- 65
2019-09-19 01:00:00 19.7 9 Oeste 20 Oeste 0 -- -- 60
2019-09-19 00:00:00 21.8 14 Oeste 21 Oeste 0 -- -- 52
2019-09-18 23:00:00 22.4 7 Noroeste 22 Oeste 0 -- -- 46
2019-09-18 22:00:00 24.5 12 Oeste 19 Oeste 0 -- -- 38
2019-09-18 21:00:00 24.5 7 Oeste 10 Oeste 0 -- -- 35
2019-09-18 20:00:00 27.1 8 Oeste 14 Sudoeste 0 -- -- 29
2019-09-18 19:00:00 29.3 11 Sudoeste 19 Sudoeste 0 -- -- 26
2019-09-18 18:00:00 30.2 10 Oeste 23 Sudoeste 0 -- -- 25
2019-09-18 17:00:00 30 11 Oeste 23 Sudoeste 0 -- -- 31
2019-09-18 16:00:00 29.1 13 Sudoeste 22 Sudoeste 0 -- -- 34
2019-09-18 15:00:00 28.5 8 Sur 22 Sudoeste 0 -- -- 35
2019-09-18 14:00:00 28 13 Oeste 23 Oeste 0 -- -- 39
2019-09-18 13:00:00 26.6 5 Este 18 Sudoeste 0 -- -- 47
2019-09-18 12:00:00 25.5 5 Sur 12 Noroeste 0 -- -- 51
2019-09-18 11:00:00 23.6 6 Sudoeste 13 Sur 0 -- -- 56
2019-09-18 10:00:00 21 5 Sur 10 Sudoeste 0 -- -- 64
2019-09-18 09:00:00 17.1 4 Sur 14 Sudoeste 0 -- -- 79
2019-09-18 08:00:00 15.4 5 Sur 9 Sur 0 -- -- 81
2019-09-18 07:00:00 15.7 5 Sur 9 Sur 0 -- -- 75
2019-09-18 06:00:00 16.3 5 Este 9 Sudeste 0 -- -- 75
2019-09-18 05:00:00 15.5 5 Sudeste 8 Sudeste 0 -- -- 80
2019-09-18 04:00:00 16.3 0 Calma 10 Sudeste 0 -- -- 77
2019-09-18 03:00:00 17.5 5 Sur 9 Sudeste 0 -- -- 75
2019-09-18 02:00:00 18.9 4 Sur 14 Sudeste 0 -- -- 71
2019-09-18 01:00:00 20.4 9 Sudeste 13 Sur 0 -- -- 66
2019-09-18 00:00:00 20.8 8 Sudeste 19 Este 0 -- -- 63
2019-09-17 23:00:00 21 8 Nordeste 35 Nordeste 0 -- -- 61
2019-09-17 22:00:00 24 21 Nordeste 36 Nordeste 0 -- -- 51
2019-09-17 21:00:00 27 14 Noroeste 26 Noroeste 0 -- -- 42
2019-09-15 18:00:00 -- -- -- -- -- -- -- -- --
2019-09-15 17:00:00 27.2 3 Noroeste 14 Oeste 0 -- -- 39
2019-09-15 16:00:00 27 5 Sur 13 Sudoeste 0 -- -- 44
2019-09-15 15:00:00 25.8 7 Sudeste 12 Sudeste 0 -- -- 47
2019-09-15 14:00:00 27.3 5 Sudeste 12 Sur 0 -- -- 46
2019-09-15 13:00:00 25.3 4 Sur 13 Nordeste 0 -- -- 54
2019-09-15 12:00:00 24.4 5 Sudeste 14 Este 0 -- -- 59
2019-09-15 11:00:00 20.5 5 Nordeste 10 Norte 0 -- -- 71
2019-09-15 10:00:00 18.5 7 Norte 16 Norte 0 -- -- 78
2019-09-15 09:00:00 15.9 3 Noroeste 8 Oeste 0 -- -- 88
2019-09-15 08:00:00 14.6 7 Noroeste 9 Noroeste 0 -- -- 89
2019-09-15 07:00:00 15.3 0 Calma 9 Noroeste 0 -- -- 87
2019-09-15 06:00:00 15.7 6 Noroeste 13 Norte 0 -- -- 84
2019-09-15 05:00:00 16.3 6 Nordeste 11 Norte 0 -- -- 81
2019-09-15 04:00:00 16.7 3 Nordeste 10 Nordeste 0 -- -- 80
2019-09-15 03:00:00 17.5 3 Nordeste 13 Norte 0 -- -- 79
2019-09-15 02:00:00 17.6 0 Calma 12 Nordeste 0 -- -- 77
2019-09-15 01:00:00 18.3 0 Calma 6 Nordeste 0 -- -- 75
2019-09-15 00:00:00 19 5 Este 9 Este 0 -- -- 72
2019-09-14 23:00:00 19.4 5 Sudeste 18 Este 0 -- -- 70
2019-09-14 22:00:00 20.8 11 Nordeste 22 Este 0 -- -- 64
2019-09-14 21:00:00 22.3 12 Este 24 Este 0 -- -- 53
2019-09-14 20:00:00 23.6 16 Este 32 Este 0 -- -- 51
2019-09-14 19:00:00 24.8 12 Nordeste 28 Este 0 -- -- 46
2019-09-14 18:00:00 25.7 12 Este 29 Este 0 -- -- 44
2019-09-14 17:00:00 25.6 14 Sudeste 29 Sudeste 0 -- -- 42
2019-09-14 16:00:00 22.9 9 Sudeste 13 Sudeste 0 -- -- 62
2019-09-14 15:00:00 19.6 7 Sur 24 Sudeste 0.2 -- -- 79
2019-09-14 14:00:00 21.2 17 Sudeste 31 Este 0 -- -- 63
2019-09-14 13:00:00 21.5 22 Sudeste 34 Este 0 -- -- 62
2019-09-14 12:00:00 22.6 23 Sudeste 32 Sudeste 0 -- -- 54
2019-09-14 11:00:00 21 15 Este 24 Este 0 -- -- 60
2019-09-14 10:00:00 19.3 9 Nordeste 20 Nordeste 0 -- -- 71
2019-09-14 09:00:00 18.5 15 Nordeste 27 Nordeste 0 -- -- 76
2019-09-14 08:00:00 17.2 14 Nordeste 22 Nordeste 0 -- -- 81
2019-09-14 07:00:00 17.2 10 Nordeste 16 Nordeste 0 -- -- 80
2019-09-14 06:00:00 -- -- -- -- -- -- -- -- --
2019-09-14 05:00:00 17.2 10 Norte 22 Este 0 -- -- 77
2019-09-14 04:00:00 17.7 12 Nordeste 28 Norte 0 -- -- 74
2019-09-14 03:00:00 19 10 Norte 28 Este 0 -- -- 69
2019-09-14 02:00:00 20.1 19 Este 27 Este 0 -- -- 65
2019-09-14 01:00:00 19.9 15 Este 28 Este 0 -- -- 62
2019-09-14 00:00:00 19.8 21 Este 37 Este 0 -- -- 60
2019-09-13 23:00:00 19.7 15 Nordeste 30 Este 0 -- -- 61
2019-09-13 22:00:00 20.6 20 Este 34 Nordeste 0 -- -- 57
2019-09-13 21:00:00 21.9 21 Este 30 Este 0 -- -- 53
2019-09-13 20:00:00 23.3 23 Este 41 Este 0 -- -- 48
2019-09-13 19:00:00 24.4 18 Este 36 Este 0 -- -- 45
2019-09-13 18:00:00 24.9 26 Este 43 Este 0 -- -- 42
2019-09-13 17:00:00 24.6 30 Este 48 Este 0 -- -- 40
2019-09-13 16:00:00 24.5 31 Este 52 Este 0 -- -- 39
2019-09-13 15:00:00 21.5 37 Este 58 Este 0 -- -- 53
2019-09-13 14:00:00 20.4 29 Sudeste 46 Este 0 -- -- 54
2019-09-13 13:00:00 21.9 31 Sudeste 49 Sudeste 0 -- -- 49
2019-09-13 12:00:00 24.2 32 Sudeste 41 Sudeste 0 -- -- 33
2019-09-13 11:00:00 24.1 17 Este 34 Este 0 -- -- 32
2019-09-13 10:00:00 23 22 Este 46 Este 0 -- -- 33
2019-09-13 09:00:00 22 18 Este 30 Nordeste 0 -- -- 35
2019-09-13 08:00:00 20.1 20 Nordeste 27 Este 0 -- -- 48
2019-09-13 07:00:00 21.1 20 Este 30 Este 0 -- -- 43
2019-09-13 06:00:00 20.6 15 Nordeste 22 Este 0 -- -- 45
2019-09-13 05:00:00 21.2 19 Este 36 Este 0 -- -- 46
2019-09-13 04:00:00 21.4 20 Este 36 Este 0 -- -- 47
2019-09-13 03:00:00 21.6 20 Este 31 Sudeste 0 -- -- 51
2019-09-13 02:00:00 21.8 23 Sudeste 38 Sudeste 0 -- -- 54
2019-09-13 01:00:00 22 17 Este 27 Este 0 -- -- 52
2019-09-13 00:00:00 22.1 15 Este 19 Este 0 -- -- 51
2019-09-12 23:00:00 20.8 11 Este 18 Sudeste 0 -- -- 54
2019-09-12 22:00:00 22.5 8 Este 21 Sudeste 0 -- -- 49
2019-09-12 21:00:00 24 16 Sudeste 35 Este 0 -- -- 47
2019-09-12 20:00:00 25.6 27 Sudeste 55 Este 0 -- -- 42
2019-09-12 19:00:00 28.9 30 Sudeste 45 Este 0 -- -- 34
2019-09-12 18:00:00 29.5 28 Sudeste 41 Sudeste 0 -- -- 32
2019-09-12 17:00:00 29.2 17 Este 41 Este 0 -- -- 32
2019-09-12 16:00:00 29.4 16 Este 48 Sudeste 0 -- -- 32
2019-09-12 15:00:00 29.9 24 Este 52 Este 0 -- -- 32
2019-09-12 14:00:00 28.9 30 Este 45 Este 0 -- -- 33
2019-09-12 13:00:00 28 30 Este 46 Este 0 -- -- 34
2019-09-12 12:00:00 27 34 Este 50 Este 0 -- -- 37
2019-09-12 11:00:00 24.9 23 Nordeste 45 Nordeste 0 -- -- 38
2019-09-12 10:00:00 22.3 27 Nordeste 36 Nordeste 0 -- -- 42
2019-09-12 09:00:00 18.7 12 Nordeste 24 Nordeste 0 -- -- 49
2019-09-12 08:00:00 17.7 17 Nordeste 24 Nordeste 0 -- -- 54
2019-09-12 07:00:00 16.2 10 Norte 14 Norte 0 -- -- 61
2019-09-12 06:00:00 15.4 5 Este 9 Sudeste 0 -- -- 64
2019-09-12 05:00:00 16.8 6 Sudeste 21 Este 0 -- -- 60
2019-09-12 04:00:00 18.1 8 Sudeste 27 Sudeste 0 -- -- 54
2019-09-12 03:00:00 19.1 17 Sudeste 25 Sudeste 0 -- -- 50
2019-09-12 02:00:00 19.3 15 Sudeste 21 Sudeste 0 -- -- 45
2019-09-12 01:00:00 20.5 7 Sudeste 20 Nordeste 0 -- -- 42
2019-09-12 00:00:00 22.3 15 Nordeste 25 Nordeste 0 -- -- 39
2019-09-11 23:00:00 22.9 16 Nordeste 23 Nordeste 0 -- -- 38
2019-09-11 22:00:00 23 7 Norte 15 Nordeste 0 -- -- 36
2019-09-11 21:00:00 25.2 12 Nordeste 26 Nordeste 0 -- -- 29
2019-09-11 20:00:00 26.9 17 Nordeste 33 Nordeste 0 -- -- 26
2019-09-11 19:00:00 27.9 17 Nordeste 36 Nordeste 0 -- -- 25
2019-09-11 18:00:00 28.5 17 Este 31 Nordeste 0 -- -- 24
2019-09-11 17:00:00 28.1 16 Nordeste 32 Nordeste 0 -- -- 24
2019-09-11 16:00:00 27.6 13 Nordeste 29 Este 0 -- -- 24
2019-09-11 15:00:00 27.4 13 Norte 26 Nordeste 0 -- -- 25
2019-09-11 14:00:00 25.9 11 Nordeste 30 Nordeste 0 -- -- 27
2019-09-11 13:00:00 24.1 11 Nordeste 24 Norte 0 -- -- 31
2019-09-11 12:00:00 22.8 12 Nordeste 24 Nordeste 0 -- -- 35
2019-09-11 11:00:00 20.9 12 Nordeste 23 Norte 0 -- -- 39
2019-09-11 10:00:00 18.6 12 Nordeste 18 Norte 0 -- -- 44
2019-09-11 09:00:00 15.3 12 Norte 18 Nordeste 0 -- -- 54
2019-09-11 08:00:00 14.4 10 Norte 18 Nordeste 0 -- -- 57
2019-09-11 07:00:00 14.3 6 Norte 23 Nordeste 0 -- -- 58
2019-09-11 06:00:00 15.4 13 Norte 27 Nordeste 0 -- -- 54
2019-09-11 05:00:00 16 14 Nordeste 24 Norte 0 -- -- 52
2019-09-11 04:00:00 16.8 17 Norte 26 Norte 0 -- -- 48
2019-09-11 03:00:00 17 8 Noroeste 19 Noroeste 0 -- -- 44
2019-09-11 02:00:00 17.9 11 Norte 24 Norte 0 -- -- 40
2019-09-11 01:00:00 17.9 2 Noroeste 14 Noroeste 0 -- -- 37
2019-09-11 00:00:00 18.9 6 Noroeste 27 Noroeste 0 -- -- 33
2019-09-10 23:00:00 20.1 16 Norte 22 Norte 0 -- -- 30
2019-09-10 22:00:00 20.8 8 Noroeste 25 Noroeste 0 -- -- 29
2019-09-10 21:00:00 21.9 11 Noroeste 27 Norte 0 -- -- 27
2019-09-10 20:00:00 23.4 16 Norte 35 Norte 0 -- -- 24
2019-09-10 19:00:00 24.5 25 Norte 41 Norte 0 -- -- 22
2019-09-10 18:00:00 25.1 24 Norte 37 Norte 0 -- -- 21
2019-09-10 17:00:00 25.5 18 Norte 40 Noroeste 0 -- -- 21
2019-09-10 16:00:00 24.8 24 Norte 44 Norte 0 -- -- 20
2019-09-10 15:00:00 24.4 22 Nordeste 41 Norte 0 -- -- 23
2019-09-10 14:00:00 23.4 23 Norte 47 Norte 0 -- -- 26
2019-09-10 13:00:00 21.2 25 Norte 44 Nordeste 0 -- -- 34
2019-09-10 12:00:00 19.8 22 Norte 50 Noroeste 0 -- -- 41
2019-09-10 11:00:00 18.1 28 Norte 44 Noroeste 0 -- -- 41
2019-09-10 10:00:00 17.4 26 Norte 42 Norte 0 -- -- 48
2019-09-10 09:00:00 15.5 15 Noroeste 29 Noroeste 0 -- -- 68
2019-09-10 08:00:00 14 18 Noroeste 30 Noroeste 0 -- -- 77
2019-09-10 07:00:00 13.8 16 Noroeste 22 Noroeste 0 -- -- 76
2019-09-10 06:00:00 14.1 17 Noroeste 27 Noroeste 0 -- -- 70
2019-09-10 05:00:00 13.4 8 Noroeste 16 Oeste 0 -- -- 72
2019-09-10 04:00:00 14.6 14 Noroeste 30 Noroeste 0 -- -- 66
2019-09-10 03:00:00 16.1 21 Noroeste 30 Noroeste 0 -- -- 58
2019-09-10 02:00:00 16.3 19 Noroeste 33 Noroeste 0 -- -- 57
2019-09-10 01:00:00 17.3 21 Noroeste 32 Noroeste 0 -- -- 50
2019-09-10 00:00:00 17.5 15 Oeste 20 Oeste 0 -- -- 52
2019-09-09 23:00:00 19.4 13 Noroeste 21 Oeste 0 -- -- 44
2019-09-09 22:00:00 21.5 13 Oeste 32 Oeste 0 -- -- 34
2019-09-09 21:00:00 23.7 22 Oeste 38 Oeste 0 -- -- 35
2019-09-09 20:00:00 25.8 23 Oeste 39 Oeste 0 -- -- 26
2019-09-09 19:00:00 27.6 26 Oeste 45 Oeste 0 -- -- 24
2019-09-09 18:00:00 29.7 30 Oeste 54 Oeste 0 -- -- 20
2019-09-09 17:00:00 30.6 35 Oeste 52 Oeste 0 -- -- 20
2019-09-09 16:00:00 30.6 34 Oeste 54 Oeste 0 -- -- 21
2019-09-09 15:00:00 30.7 28 Oeste 48 Oeste 0 -- -- 20
2019-09-09 14:00:00 29.6 25 Oeste 41 Oeste 0 -- -- 23
2019-09-09 13:00:00 28.1 21 Sudoeste 33 Sudoeste 0 -- -- 25
2019-09-09 12:00:00 26 13 Sudoeste 21 Oeste 0 -- -- 31
2019-09-09 11:00:00 24.9 9 Oeste 15 Oeste 0 -- -- 33
2019-09-09 10:00:00 21.9 2 Sur 4 Sur 0 -- -- 41
2019-09-09 09:00:00 15.9 0 Calma 3 Sur 0 -- -- 52
2019-09-09 08:00:00 13.4 0 Calma 4 Noroeste 0 -- -- 57
2019-09-09 07:00:00 15.4 0 Calma 12 Noroeste 0 -- -- 52
2019-09-09 06:00:00 18.2 10 Noroeste 15 Noroeste 0 -- -- 45
2019-09-09 05:00:00 20.1 11 Noroeste 14 Noroeste 0 -- -- 38
2019-09-09 04:00:00 20 13 Noroeste 16 Noroeste 0 -- -- 39
2019-09-09 03:00:00 20.4 12 Noroeste 18 Noroeste 0 -- -- 39
2019-09-09 02:00:00 22.1 14 Noroeste 21 Noroeste 0 -- -- 36
2019-09-09 01:00:00 23.9 13 Noroeste 23 Noroeste 0 -- -- 31
2019-09-09 00:00:00 24.1 16 Noroeste 29 Noroeste 0 -- -- 29
2019-09-08 23:00:00 24 8 Noroeste 13 Oeste 0 -- -- 27
2019-09-08 22:00:00 24.8 4 Noroeste 15 Noroeste 0 -- -- 25
2019-09-08 21:00:00 28.3 12 Noroeste 18 Noroeste 0 -- -- 20
2019-09-08 20:00:00 30.8 14 Noroeste 21 Noroeste 0 -- -- 19
2019-09-08 19:00:00 32.2 12 Noroeste 24 Noroeste 0 -- -- 18
2019-09-08 18:00:00 32.8 9 Norte 31 Noroeste 0 -- -- 19
2019-09-08 17:00:00 32.9 14 Oeste 32 Noroeste 0 -- -- 19
2019-09-08 16:00:00 32.5 14 Norte 29 Noroeste 0 -- -- 20
2019-09-08 15:00:00 31.7 10 Noroeste 23 Noroeste 0 -- -- 22
2019-09-08 14:00:00 31.4 10 Norte 16 Oeste 0 -- -- 21
2019-09-08 13:00:00 30 8 Sudoeste 13 Sur 0 -- -- 23
2019-09-08 12:00:00 28.3 3 Sudoeste 10 Sur 0 -- -- 24
2019-09-08 11:00:00 25.9 2 Este 8 Noroeste 0 -- -- 27
2019-09-08 10:00:00 22.4 0 Calma 5 Noroeste 0 -- -- 31
2019-09-08 09:00:00 17.6 2 Noroeste 7 Oeste 0 -- -- 39
2019-09-08 08:00:00 15.1 4 Noroeste 8 Noroeste 0 -- -- 42
2019-09-08 07:00:00 16.3 3 Oeste 11 Oeste 0 -- -- 41
2019-09-08 06:00:00 17.9 0 Calma 9 Noroeste 0 -- -- 38
2019-09-08 05:00:00 21.2 9 Oeste 15 Oeste 0 -- -- 32
2019-09-08 04:00:00 20.8 10 Norte 16 Norte 0 -- -- 33
2019-09-08 03:00:00 21.7 13 Norte 19 Norte 0 -- -- 32
2019-09-08 02:00:00 22.2 13 Norte 18 Norte 0 -- -- 33
2019-09-08 01:00:00 23 11 Norte 14 Norte 0 -- -- 33
2019-09-08 00:00:00 23.5 6 Norte 10 Norte 0 -- -- 33
2019-09-07 23:00:00 25.3 6 Norte 18 Norte 0 -- -- 31
2019-09-07 22:00:00 26.2 6 Norte 18 Noroeste 0 -- -- 28
2019-09-07 21:00:00 28.4 10 Noroeste 22 Noroeste 0 -- -- 25
2019-09-07 20:00:00 31.4 7 Noroeste 15 Noroeste 0 -- -- 20
2019-09-07 19:00:00 32.6 5 Noroeste 19 Noroeste 0 -- -- 16
2019-09-07 18:00:00 33.3 5 Noroeste 22 Noroeste 0 -- -- 16
2019-09-07 17:00:00 32.7 10 Norte 22 Noroeste 0 -- -- 16
2019-09-07 16:00:00 32.5 10 Noroeste 22 Noroeste 0 -- -- 18
2019-09-07 15:00:00 31.7 6 Oeste 17 Norte 0 -- -- 20
2019-09-07 14:00:00 30.3 9 Norte 20 Nordeste 0 -- -- 22
2019-09-07 13:00:00 28.8 10 Norte 19 Nordeste 0 -- -- 23
2019-09-07 12:00:00 26.8 13 Nordeste 21 Nordeste 0 -- -- 24
2019-09-07 11:00:00 24.1 14 Nordeste 24 Norte 0 -- -- 28
2019-09-07 10:00:00 20.9 18 Norte 25 Norte 0 -- -- 31
2019-09-07 09:00:00 18.4 16 Nordeste 26 Nordeste 0 -- -- 36
2019-09-07 08:00:00 17.1 8 Norte 21 Norte 0 -- -- 38
2019-09-07 07:00:00 17.4 14 Norte 21 Norte 0 -- -- 38
2019-09-07 06:00:00 17.7 10 Norte 20 Norte 0 -- -- 38
2019-09-07 05:00:00 18 9 Norte 23 Norte 0 -- -- 37
2019-09-07 04:00:00 19.7 14 Norte 19 Norte 0 -- -- 34
2019-09-07 03:00:00 20 6 Norte 21 Norte 0 -- -- 31
2019-09-07 02:00:00 21.3 15 Norte 21 Norte 0 -- -- 29
2019-09-07 01:00:00 21.6 11 Norte 17 Nordeste 0 -- -- 31
2019-09-07 00:00:00 22.4 10 Norte 17 Nordeste 0 -- -- 31
2019-09-06 23:00:00 23 6 Norte 14 Norte 0 -- -- 30
2019-09-06 22:00:00 25.3 12 Norte 19 Norte 0 -- -- 27
2019-09-06 21:00:00 26.9 8 Norte 18 Norte 0 -- -- 25
2019-09-06 20:00:00 29.8 9 Norte 22 Norte 0 -- -- 22
2019-09-06 19:00:00 31 12 Nordeste 23 Nordeste 0 -- -- 21
2019-09-06 18:00:00 31.9 15 Nordeste 25 Nordeste 0 -- -- 21
2019-09-06 17:00:00 32.2 16 Este 27 Nordeste 0 -- -- 22
2019-09-06 16:00:00 32.1 13 Norte 26 Nordeste 0 -- -- 23
2019-09-06 15:00:00 31.5 10 Nordeste 25 Norte 0 -- -- 25
2019-09-06 14:00:00 30.5 6 Nordeste 27 Este 0 -- -- 27
2019-09-06 13:00:00 28.3 10 Nordeste 29 Este 0 -- -- 27
2019-09-06 12:00:00 26.4 13 Este 23 Nordeste 0 -- -- 29
2019-09-06 11:00:00 24 16 Nordeste 26 Nordeste 0 -- -- 30
2019-09-06 10:00:00 21.3 16 Nordeste 24 Nordeste 0 -- -- 34
2019-09-06 09:00:00 18.7 12 Nordeste 22 Norte 0 -- -- 40
2019-09-06 08:00:00 17.7 15 Norte 21 Norte 0 -- -- 42
2019-09-06 07:00:00 18.3 14 Nordeste 21 Norte 0 -- -- 38
2019-09-06 06:00:00 19.2 13 Nordeste 20 Nordeste 0 -- -- 36
2019-09-06 05:00:00 19.7 14 Nordeste 25 Norte 0 -- -- 36
2019-09-06 04:00:00 20.7 16 Norte 23 Norte 0 -- -- 34
2019-09-06 03:00:00 21.9 18 Norte 24 Norte 0 -- -- 32
2019-09-06 02:00:00 22.4 16 Norte 26 Norte 0 -- -- 31
2019-09-06 01:00:00 23.1 17 Nordeste 28 Nordeste 0 -- -- 30
2019-09-06 00:00:00 24.5 18 Nordeste 30 Nordeste 0 -- -- 27
2019-09-05 23:00:00 25.6 17 Nordeste 28 Nordeste 0 -- -- 27
2019-09-05 22:00:00 27.5 15 Nordeste 23 Nordeste 0 -- -- 29
2019-09-05 21:00:00 29.4 16 Nordeste 28 Nordeste 0 -- -- 27
2019-09-05 20:00:00 31.8 18 Nordeste 36 Nordeste 0 -- -- 22
2019-09-05 19:00:00 33.4 19 Nordeste 33 Nordeste 0 -- -- 21
2019-09-05 18:00:00 34.3 17 Nordeste 35 Norte 0 -- -- 20
2019-09-05 17:00:00 34.7 20 Norte 37 Norte 0 -- -- 21
2019-09-05 16:00:00 35.2 18 Norte 34 Nordeste 0 -- -- 22
2019-09-05 15:00:00 34.7 14 Este 25 Nordeste 0 -- -- 21
2019-09-05 14:00:00 33.8 13 Este 31 Este 0 -- -- 22
2019-09-05 13:00:00 32.4 13 Este 27 Sudeste 0 -- -- 25
2019-09-05 12:00:00 29.9 16 Nordeste 28 Nordeste 0 -- -- 28
2019-09-05 11:00:00 27.6 15 Nordeste 30 Norte 0 -- -- 30
2019-09-05 10:00:00 24.2 21 Nordeste 27 Nordeste 0 -- -- 35
2019-09-05 09:00:00 21.8 15 Norte 23 Norte 0 -- -- 38
2019-09-05 08:00:00 20 5 Norte 13 Norte 0 -- -- 43
2019-09-05 07:00:00 19.8 4 Oeste 12 Noroeste 0 -- -- 47
2019-09-05 06:00:00 20.9 6 Noroeste 15 Oeste 0 -- -- 46
2019-09-05 05:00:00 20.9 12 Oeste 14 Oeste 0 -- -- 47
2019-09-05 04:00:00 20.3 0 Calma 10 Oeste 0 -- -- 48
2019-09-05 03:00:00 22.6 9 Oeste 16 Norte 0 -- -- 42
2019-09-05 02:00:00 25.1 14 Norte 22 Norte 0 -- -- 37
2019-09-05 01:00:00 25.7 12 Norte 19 Norte 0 -- -- 34
2019-09-05 00:00:00 26.9 13 Norte 25 Norte 0 -- -- 30
2019-09-04 23:00:00 29.3 15 Norte 23 Noroeste 0 -- -- 24
2019-09-04 22:00:00 30.5 17 Noroeste 25 Noroeste 0 -- -- 23
2019-09-04 21:00:00 31.9 11 Noroeste 25 Noroeste 0 -- -- 19
2019-09-04 20:00:00 34.6 17 Noroeste 32 Oeste 0 -- -- 18
2019-09-04 19:00:00 36.2 18 Noroeste 35 Oeste 0 -- -- 17
2019-09-04 18:00:00 37.2 16 Noroeste 37 Norte 0 -- -- 16
2019-09-04 17:00:00 37.4 22 Noroeste 35 Noroeste 0 -- -- 16
2019-09-04 16:00:00 36.9 16 Noroeste 32 Noroeste 0 -- -- 17
2019-09-04 15:00:00 36.5 16 Noroeste 30 Norte 0 -- -- 18
2019-09-04 14:00:00 35.7 21 Norte 31 Norte 0 -- -- 18
2019-09-04 13:00:00 35 9 Noroeste 21 Nordeste 0 -- -- 19
2019-09-04 12:00:00 33.5 9 Norte 18 Nordeste 0 -- -- 22
2019-09-04 11:00:00 30.6 11 Nordeste 21 Norte 0 -- -- 26
2019-09-04 10:00:00 27.4 15 Norte 22 Nordeste 0 -- -- 30
2019-09-04 09:00:00 25 12 Norte 17 Norte 0 -- -- 33
2019-09-04 08:00:00 22.5 13 Norte 16 Norte 0 -- -- 38
2019-09-04 07:00:00 21.7 5 Norte 13 Norte 0 -- -- 39
2019-09-04 06:00:00 22.1 8 Noroeste 13 Noroeste 0 -- -- 38
2019-09-04 05:00:00 22.6 5 Noroeste 10 Norte 0 -- -- 37
2019-09-04 04:00:00 23.6 5 Noroeste 15 Norte 0 -- -- 34
2019-09-04 03:00:00 24.8 13 Norte 15 Norte 0 -- -- 31
2019-09-04 02:00:00 24.2 7 Norte 11 Norte 0 -- -- 31
2019-09-04 01:00:00 25.2 2 Noroeste 21 Oeste 0 -- -- 29
2019-09-04 00:00:00 24.6 0 Calma 5 Oeste 0 -- -- 29
2019-09-03 23:00:00 27.7 3 Noroeste 10 Norte 0 -- -- 25
2019-09-03 22:00:00 28.7 4 Norte 6 Noroeste 0 -- -- 25
2019-09-03 21:00:00 31.5 7 Norte 12 Norte 0 -- -- 24
2019-09-03 20:00:00 34.8 8 Norte 16 Nordeste 0 -- -- 20
2019-09-03 19:00:00 36.4 3 Sudoeste 23 Noroeste 0 -- -- 19
2019-09-03 18:00:00 37 12 Sudoeste 23 Sudoeste 0 -- -- 18
2019-09-03 17:00:00 37 15 Noroeste 25 Norte 0 -- -- 18
2019-09-03 16:00:00 36.4 9 Noroeste 27 Noroeste 0 -- -- 21
2019-09-03 15:00:00 35.8 9 Noroeste 21 Noroeste 0 -- -- 23
2019-09-03 14:00:00 35.1 6 Sudoeste 17 Oeste 0 -- -- 24
2019-09-03 13:00:00 33.2 6 Sudoeste 14 Sur 0 -- -- 27
2019-09-03 12:00:00 31.3 4 Sur 9 Sudeste 0 -- -- 31
2019-09-03 11:00:00 28.6 4 Sudeste 9 Sudeste 0 -- -- 35
2019-09-03 10:00:00 25.2 3 Este 7 Sudeste 0 -- -- 40
2019-09-03 09:00:00 20.4 3 Sudeste 9 Sudeste 0 -- -- 52
2019-09-03 08:00:00 18.9 3 Oeste 9 Oeste 0 -- -- 51
2019-09-03 07:00:00 19.6 3 Noroeste 8 Noroeste 0 -- -- 51
2019-09-03 06:00:00 20.2 3 Noroeste 10 Norte 0 -- -- 46
2019-09-03 05:00:00 20.2 3 Oeste 12 Noroeste 0 -- -- 50
2019-09-03 04:00:00 22.4 8 Noroeste 17 Oeste 0 -- -- 50
2019-09-03 03:00:00 22.9 9 Oeste 14 Oeste 0 -- -- 46
2019-09-03 02:00:00 21.8 2 Nordeste 7 Sur 0 -- -- 32
2019-09-03 01:00:00 25.1 6 Sur 12 Sur 0 -- -- 25
2019-09-03 00:00:00 26.5 8 Norte 15 Nordeste 0 -- -- 25
2019-09-02 23:00:00 25.4 6 Oeste 8 Oeste 0 -- -- 27
2019-09-02 22:00:00 27.7 7 Noroeste 8 Noroeste 0 -- -- 26
2019-09-02 21:00:00 31.1 6 Noroeste 19 Noroeste 0 -- -- 22
2019-09-02 20:00:00 34.2 13 Noroeste 21 Noroeste 0 -- -- 21
2019-09-02 19:00:00 35.5 5 Norte 22 Sudoeste 0 -- -- 19
2019-09-02 18:00:00 36 7 Noroeste 23 Sudoeste 0 -- -- 18
2019-09-02 17:00:00 35.3 10 Sudoeste 27 Sur 0 -- -- 23
2019-09-02 16:00:00 35.2 10 Sur 31 Sudoeste 0 -- -- 25
2019-09-02 15:00:00 34.5 17 Sudoeste 30 Sudoeste 0 -- -- 26
2019-09-02 14:00:00 33.9 6 Sudoeste 30 Sur 0 -- -- 29
2019-09-02 13:00:00 33.1 9 Sudoeste 17 Sudoeste 0 -- -- 29
2019-09-02 12:00:00 32 6 Sudeste 12 Sur 0 -- -- 31
2019-09-02 11:00:00 28.4 3 Este 14 Norte 0 -- -- 37
2019-09-02 10:00:00 25 10 Norte 15 Norte 0 -- -- 44
2019-09-02 09:00:00 21.5 4 Noroeste 8 Oeste 0 -- -- 53
2019-09-02 08:00:00 18.5 6 Oeste 9 Oeste 0 -- -- 59
2019-09-02 07:00:00 20 0 Calma 10 Norte 0 -- -- 55
2019-09-02 06:00:00 19.6 2 Noroeste 4 Oeste 0 -- -- 54
2019-09-02 05:00:00 20.2 3 Sur 6 Sudeste 0 -- -- 51
2019-09-02 04:00:00 22 2 Oeste 7 Oeste 0 -- -- 47
2019-09-02 03:00:00 23.4 5 Noroeste 9 Oeste 0 -- -- 41
2019-09-02 02:00:00 24.3 6 Oeste 15 Norte 0 -- -- 38
2019-09-02 01:00:00 24.2 4 Noroeste 10 Noroeste 0 -- -- 42
2019-09-02 00:00:00 25.4 6 Noroeste 12 Noroeste 0 -- -- 39
2019-09-01 23:00:00 28.2 7 Noroeste 21 Noroeste 0 -- -- 35
2019-09-01 22:00:00 29.5 6 Noroeste 17 Oeste 0 -- -- 32
2019-09-01 21:00:00 31.8 10 Oeste 23 Noroeste 0 -- -- 29
2019-09-01 20:00:00 33.4 15 Oeste 24 Oeste 0 -- -- 27
2019-09-01 19:00:00 35.6 12 Oeste 21 Noroeste 0 -- -- 24
2019-09-01 18:00:00 35.3 9 Oeste 31 Sudoeste 0 -- -- 26
2019-09-01 17:00:00 36.1 11 Sudoeste 27 Oeste 0 -- -- 25
2019-09-01 16:00:00 35.6 10 Sudoeste 24 Oeste 0 -- -- 25
2019-09-01 15:00:00 34.7 9 Oeste 26 Oeste 0 -- -- 25
2019-09-01 14:00:00 33.8 12 Oeste 22 Sudoeste 0 -- -- 24
2019-09-01 13:00:00 32.9 12 Sudoeste 19 Sudoeste 0 -- -- 24
2019-09-01 12:00:00 31.7 9 Oeste 16 Oeste 0 -- -- 29
2019-09-01 11:00:00 29.5 4 Sudeste 11 Sur 0 -- -- 31
2019-09-01 10:00:00 25 0 Calma 7 Norte 0 -- -- 43
2019-09-01 09:00:00 19.4 0 Calma 4 Nordeste 0 -- -- 59
2019-09-01 08:00:00 17.1 0 Calma 5 Sudeste 0 -- -- 64
2019-09-01 07:00:00 18.6 4 Sudeste 6 Sudeste 0 -- -- 56
2019-09-01 06:00:00 20.5 4 Noroeste 9 Noroeste 0 -- -- 51
2019-09-01 05:00:00 21.6 4 Noroeste 8 Norte 0 -- -- 41
2019-09-01 04:00:00 22.4 4 Noroeste 10 Oeste 0 -- -- 40
2019-09-01 03:00:00 23.7 3 Noroeste 11 Norte 0 -- -- 35
2019-09-01 02:00:00 23.2 6 Oeste 9 Oeste 0 -- -- 41
2019-09-01 01:00:00 24.1 6 Oeste 10 Noroeste 0 -- -- 40
2019-09-01 00:00:00 25.5 9 Noroeste 21 Noroeste 0 -- -- 37
2019-08-31 23:00:00 27.5 14 Noroeste 26 Noroeste 0 -- -- 36
2019-08-31 22:00:00 29.1 15 Noroeste 25 Noroeste 0 -- -- 36
2019-08-31 21:00:00 31.4 13 Noroeste 24 Oeste 0 -- -- 30
2019-08-31 20:00:00 34.1 13 Oeste 23 Sudoeste 0 -- -- 26
2019-08-31 19:00:00 35.3 10 Oeste 28 Oeste 0 -- -- 24
2019-08-31 18:00:00 35.8 14 Oeste 26 Oeste 0 -- -- 24
2019-08-31 17:00:00 36.1 12 Sudoeste 23 Oeste 0 -- -- 24
2019-08-31 16:00:00 35.7 10 Sudoeste 22 Noroeste 0 -- -- 25
2019-08-31 15:00:00 34.9 13 Oeste 24 Oeste 0 -- -- 27
2019-08-31 14:00:00 33.9 6 Sur 17 Sur 0 -- -- 28
2019-08-31 13:00:00 32.1 8 Sur 18 Sur 0 -- -- 31
2019-08-31 12:00:00 30.4 9 Sur 15 Sudeste 0 -- -- 33
2019-08-31 11:00:00 28.2 10 Sudeste 17 Sudeste 0 -- -- 37
2019-08-31 10:00:00 26 9 Sudeste 15 Sudeste 0 -- -- 41
2019-08-31 09:00:00 22.3 9 Sudeste 13 Sudeste 0 -- -- 51
2019-08-31 08:00:00 20.5 10 Sudeste 13 Sudeste 0 -- -- 55
2019-08-31 07:00:00 21.4 8 Sudeste 15 Sudeste 0 -- -- 52
2019-08-31 06:00:00 22.8 9 Sudeste 22 Sudeste 0 -- -- 48
2019-08-31 05:00:00 24.1 14 Sudeste 23 Sudeste 0 -- -- 44
2019-08-31 04:00:00 24.7 8 Sudeste 17 Sudeste 0 -- -- 43
2019-08-31 03:00:00 23.4 2 Sudoeste 9 Este 0 -- -- 45
2019-08-31 02:00:00 25.3 8 Este 27 Sudeste 0 -- -- 42
2019-08-31 01:00:00 26.7 8 Norte 18 Norte 0 -- -- 39
2019-08-31 00:00:00 27.4 11 Norte 17 Noroeste 0 -- -- 35
2019-08-30 23:00:00 25.2 0 Calma 0 Calma 0 -- -- 33
2019-08-30 22:00:00 27.8 0 Calma 5 Oeste 0 -- -- 30
2019-08-30 21:00:00 32.3 4 Oeste 12 Sudoeste 0 -- -- 25
2019-08-30 20:00:00 34.9 6 Oeste 18 Sudoeste 0 -- -- 23
2019-08-30 19:00:00 35.4 7 Sur 23 Sudoeste 0 -- -- 23
2019-08-30 18:00:00 35.6 12 Sudoeste 27 Oeste 0 -- -- 21
2019-08-30 17:00:00 36 12 Sudoeste 31 Sudoeste 0 -- -- 21
2019-08-30 16:00:00 36.2 12 Sudoeste 27 Sudoeste 0 -- -- 22
2019-08-30 15:00:00 35.9 10 Oeste 21 Sudoeste 0 -- -- 22
2019-08-30 14:00:00 35.2 9 Oeste 22 Oeste 0 -- -- 24
2019-08-30 13:00:00 34.2 9 Oeste 14 Oeste 0 -- -- 24
2019-08-30 12:00:00 32.6 4 Sur 9 Sudoeste 0 -- -- 24
2019-08-30 11:00:00 29.6 5 Oeste 10 Oeste 0 -- -- 28
2019-08-30 10:00:00 27.3 4 Sur 8 Sudeste 0 -- -- 35
2019-08-30 09:00:00 21.6 0 Calma 4 Sudoeste 0 -- -- 44
2019-08-30 08:00:00 18.1 2 Este 4 Este 0 -- -- 49
2019-08-30 07:00:00 19.1 2 Sudoeste 8 Sudeste 0 -- -- 48
2019-08-30 06:00:00 20.1 3 Noroeste 10 Oeste 0 -- -- 46
2019-08-30 05:00:00 21.5 4 Noroeste 10 Oeste 0 -- -- 44
2019-08-30 04:00:00 21.6 3 Oeste 10 Oeste 0 -- -- 46
2019-08-30 03:00:00 22.6 4 Oeste 13 Norte 0 -- -- 44
2019-08-30 02:00:00 24.8 13 Sudoeste 22 Sudoeste 0 -- -- 40
2019-08-30 01:00:00 25 7 Norte 21 Norte 0 -- -- 39
2019-08-30 00:00:00 27.3 15 Norte 25 Noroeste 0 -- -- 35
2019-08-29 23:00:00 28.9 15 Noroeste 24 Norte 0 -- -- 30
2019-08-29 22:00:00 28.9 11 Noroeste 15 Noroeste 0 -- -- 30
2019-08-29 21:00:00 31.9 6 Noroeste 14 Oeste 0 -- -- 27
2019-08-29 20:00:00 34.4 10 Oeste 23 Oeste 0 -- -- 24
2019-08-29 19:00:00 35.4 6 Oeste 23 Sudoeste 0 -- -- 23
2019-08-29 18:00:00 35.8 11 Sudoeste 37 Sudoeste 0 -- -- 23
2019-08-29 17:00:00 35.8 14 Oeste 28 Sudoeste 0 -- -- 23
2019-08-29 16:00:00 35.8 7 Oeste 24 Sudoeste 0 -- -- 24
2019-08-29 15:00:00 34.9 10 Sudoeste 23 Sudoeste 0 -- -- 24
2019-08-29 14:00:00 34 10 Sudoeste 21 Sudoeste 0 -- -- 25
2019-08-29 13:00:00 32.9 9 Sur 19 Sur 0 -- -- 25
2019-08-29 12:00:00 31.3 9 Sur 15 Sur 0 -- -- 31
2019-08-29 11:00:00 29.1 5 Sudeste 13 Sudeste 0 -- -- 36
2019-08-29 10:00:00 26.5 7 Sudeste 9 Sudeste 0 -- -- 38
2019-08-29 09:00:00 22 4 Sudeste 9 Sudeste 0 -- -- 46
2019-08-29 08:00:00 20.7 0 Calma 10 Norte 0 -- -- 47
2019-08-29 07:00:00 20.1 4 Norte 8 Norte 0 -- -- 53
2019-08-29 06:00:00 20.4 5 Noroeste 7 Norte 0 -- -- 46
2019-08-29 05:00:00 20.8 3 Norte 7 Norte 0 -- -- 48
2019-08-29 04:00:00 22 3 Oeste 17 Noroeste 0 -- -- 50
2019-08-29 03:00:00 22.5 6 Noroeste 14 Oeste 0 -- -- 49
2019-08-29 02:00:00 23.4 3 Oeste 15 Norte 0 -- -- 49
2019-08-29 01:00:00 24.4 8 Noroeste 16 Norte 0 -- -- 44
2019-08-29 00:00:00 24.2 6 Oeste 9 Oeste 0 -- -- 31
2019-08-28 23:00:00 23.8 5 Oeste 8 Oeste 0 -- -- 31
2019-08-28 22:00:00 25.5 0 Calma 8 Sudoeste 0 -- -- 29
2019-08-28 21:00:00 29.5 7 Sudoeste 17 Oeste 0 -- -- 25
2019-08-28 20:00:00 32.3 9 Sudoeste 21 Sudoeste 0 -- -- 22
2019-08-28 19:00:00 33 5 Sur 21 Oeste 0 -- -- 23
2019-08-28 18:00:00 33.4 14 Sudoeste 22 Sudoeste 0 -- -- 25
2019-08-28 17:00:00 33.8 9 Oeste 24 Sudoeste 0 -- -- 25
2019-08-28 16:00:00 33 6 Sudoeste 24 Sudoeste 0 -- -- 27
2019-08-28 15:00:00 32 15 Sudoeste 24 Sudoeste 0 -- -- 31
2019-08-28 14:00:00 31.1 14 Sudoeste 24 Sudoeste 0 -- -- 34
2019-08-28 13:00:00 30.4 10 Sur 19 Sur 0 -- -- 37
2019-08-28 12:00:00 28.4 7 Sudoeste 13 Sudoeste 0 -- -- 44
2019-08-28 11:00:00 25.9 3 Sudeste 11 Oeste 0 -- -- 53
2019-08-28 10:00:00 22.7 8 Oeste 11 Oeste 0 -- -- 66
2019-08-28 09:00:00 18.7 0 Calma 4 Este 0 -- -- 78
2019-08-28 08:00:00 15.5 0 Calma 4 Este 0 -- -- 83
2019-08-28 07:00:00 16.1 3 Este 4 Este 0 -- -- 84
2019-08-28 06:00:00 17.4 3 Sudeste 7 Este 0 -- -- 81
2019-08-28 05:00:00 18.3 2 Oeste 5 Oeste 0 -- -- 74
2019-08-28 04:00:00 19.7 0 Calma 8 Noroeste 0 -- -- 68
2019-08-28 03:00:00 20.8 6 Noroeste 8 Noroeste 0 -- -- 67
2019-08-28 02:00:00 21.3 5 Noroeste 13 Oeste 0 -- -- 63
2019-08-28 01:00:00 22.5 3 Noroeste 18 Noroeste 0 -- -- 54
2019-08-28 00:00:00 24 14 Noroeste 23 Noroeste 0 -- -- 50
2019-08-27 23:00:00 24.5 13 Oeste 20 Oeste 0 -- -- 48
2019-08-27 22:00:00 24.6 0 Calma 8 Sudoeste 0 -- -- 46
2019-08-27 21:00:00 27.9 5 Sudoeste 10 Sudoeste 0 -- -- 40
2019-08-27 20:00:00 29.2 4 Sudeste 20 Nordeste 0 -- -- 36
2019-08-27 19:00:00 30.3 6 Oeste 26 Sudoeste 0 -- -- 34
2019-08-27 18:00:00 31 16 Oeste 26 Oeste 0 -- -- 36
2019-08-27 17:00:00 31.1 10 Noroeste 27 Oeste 0 -- -- 35
2019-08-27 16:00:00 29.4 14 Sudoeste 27 Oeste 0 -- -- 40
2019-08-27 15:00:00 29.7 13 Sudoeste 30 Sudoeste 0 -- -- 41
2019-08-27 14:00:00 28.5 14 Oeste 26 Oeste 0 -- -- 46
2019-08-27 13:00:00 27.6 9 Noroeste 23 Oeste 0 -- -- 47
2019-08-27 12:00:00 26.2 6 Oeste 30 Oeste 0 -- -- 50
2019-08-27 11:00:00 23.7 4 Norte 9 Norte 0 -- -- 58
2019-08-27 10:00:00 21.3 2 Este 7 Sudeste 0.2 -- -- 76
2019-08-27 09:00:00 17.4 2 Sudeste 7 Sur 0 -- -- 89
2019-08-27 08:00:00 14.4 4 Sur 7 Sudeste 0 -- -- 97
2019-08-27 07:00:00 14.9 0 Calma 4 Oeste 0 -- -- 95
2019-08-27 06:00:00 15.5 2 Sur 10 Sur 0 -- -- 95
2019-08-27 05:00:00 15.7 3 Sur 12 Sudeste 0 -- -- 94
2019-08-27 04:00:00 16.1 0 Calma 4 Sur 0 -- -- 90
2019-08-27 03:00:00 16.7 0 Calma 12 Sudeste 0 -- -- 89
2019-08-27 02:00:00 17.4 5 Sudeste 7 Sudeste 0 -- -- 87
2019-08-27 01:00:00 18.5 5 Este 12 Sudeste 0 -- -- 84
2019-08-27 00:00:00 18.5 2 Sudeste 11 Noroeste 0 -- -- 74
2019-08-26 23:00:00 19.8 7 Sudoeste 8 Noroeste 0 -- -- 66
2019-08-26 22:00:00 20.6 2 Norte 9 Oeste 0 -- -- 68
2019-08-26 21:00:00 21.8 10 Oeste 18 Sudoeste 0 -- -- 62
2019-08-26 20:00:00 19.9 13 Sudoeste 36 Sudoeste 0.2 -- -- 74
2019-08-26 19:00:00 20.6 23 Sudoeste 48 Oeste 0.2 -- -- 63
2019-08-26 18:00:00 29.9 10 Sudoeste 30 Oeste 0 -- -- 32
2019-08-26 17:00:00 30.6 10 Noroeste 24 Noroeste 0 -- -- 32
2019-08-26 16:00:00 30.1 7 Sudoeste 21 Norte 0 -- -- 33
2019-08-26 15:00:00 28.7 7 Nordeste 15 Norte 0 -- -- 36
2019-08-26 14:00:00 27.6 8 Norte 25 Norte 0 -- -- 38
2019-08-26 13:00:00 26.7 13 Nordeste 26 Nordeste 0 -- -- 37
2019-08-26 12:00:00 24.6 19 Norte 33 Nordeste 0 -- -- 42
2019-08-26 11:00:00 23 21 Nordeste 37 Nordeste 0 -- -- 48
2019-08-26 10:00:00 21.1 23 Norte 38 Norte 0 -- -- 59
2019-08-26 09:00:00 20.8 23 Norte 36 Noroeste 0 -- -- 70
2019-08-26 08:00:00 20.8 22 Noroeste 30 Noroeste 0 -- -- 65
2019-08-26 07:00:00 20.6 13 Oeste 17 Oeste 0 -- -- 57
2019-08-26 06:00:00 20.5 7 Norte 19 Sudoeste 0 -- -- 56
2019-08-26 05:00:00 21.4 15 Sudoeste 22 Oeste 0 -- -- 50
2019-08-26 04:00:00 22.5 9 Sudoeste 14 Oeste 0 -- -- 49
2019-08-26 03:00:00 23.4 9 Noroeste 25 Noroeste 0 -- -- 47
2019-08-26 02:00:00 24.1 8 Noroeste 22 Noroeste 0 -- -- 43
2019-08-26 01:00:00 24.8 14 Noroeste 29 Norte 0 -- -- 40
2019-08-26 00:00:00 25.2 18 Norte 28 Norte 0 -- -- 39
2019-08-25 23:00:00 25.9 14 Norte 30 Norte 0 -- -- 40
2019-08-25 22:00:00 27.4 17 Noroeste 29 Noroeste 0 -- -- 38
2019-08-25 21:00:00 29 13 Noroeste 24 Oeste 0 -- -- 34
2019-08-25 20:00:00 30.9 15 Oeste 28 Oeste 0 -- -- 31
2019-08-25 19:00:00 33.1 19 Oeste 31 Oeste 0 -- -- 29
2019-08-25 18:00:00 34.1 9 Oeste 22 Oeste 0 -- -- 27
2019-08-25 17:00:00 33.8 14 Oeste 34 Oeste 0 -- -- 28
2019-08-25 16:00:00 32.8 12 Sudoeste 24 Oeste 0 -- -- 30
2019-08-25 15:00:00 32.3 11 Sudoeste 23 Oeste 0 -- -- 30
2019-08-25 14:00:00 31.1 10 Oeste 23 Sudoeste 0 -- -- 31
2019-08-25 13:00:00 29 9 Sudoeste 20 Oeste 0 -- -- 35
2019-08-25 12:00:00 26.6 14 Sudoeste 24 Sudoeste 0 -- -- 39
2019-08-25 11:00:00 24.4 13 Sudoeste 23 Sudoeste 0 -- -- 45
2019-08-25 10:00:00 21.9 8 Sudoeste 15 Sudoeste 0 -- -- 51
2019-08-25 09:00:00 19.1 7 Sur 15 Sudoeste 0 -- -- 63
2019-08-25 08:00:00 16.7 7 Sur 10 Sur 0 -- -- 68
2019-08-25 07:00:00 17.2 3 Sur 15 Sudeste 0 -- -- 62
2019-08-25 06:00:00 18.9 3 Este 11 Noroeste 0 -- -- 56
2019-08-25 05:00:00 21.4 6 Noroeste 12 Oeste 0 -- -- 50
2019-08-25 04:00:00 22.5 6 Sudeste 11 Noroeste 0 -- -- 47
2019-08-25 03:00:00 23.1 5 Sudoeste 13 Norte 0 -- -- 44
2019-08-25 02:00:00 26.5 12 Norte 20 Norte 0 -- -- 39
2019-08-25 01:00:00 26.5 8 Norte 19 Norte 0 -- -- 38
2019-08-25 00:00:00 27.2 11 Norte 20 Noroeste 0 -- -- 36
2019-08-24 23:00:00 25.8 0 Calma 4 Noroeste 0 -- -- 31
2019-08-24 22:00:00 28.1 4 Noroeste 11 Oeste 0 -- -- 28
2019-08-24 21:00:00 32.6 10 Oeste 18 Sudoeste 0 -- -- 23
2019-08-24 20:00:00 35.3 7 Sudoeste 22 Sudoeste 0 -- -- 21
2019-08-24 19:00:00 36.7 8 Oeste 24 Sudoeste 0 -- -- 19
2019-08-24 18:00:00 37 11 Oeste 27 Sudoeste 0 -- -- 19
2019-08-24 17:00:00 37.2 16 Oeste 39 Sudoeste 0 -- -- 20
2019-08-24 16:00:00 36.8 11 Sudoeste 22 Sur 0 -- -- 21
2019-08-24 15:00:00 35.9 12 Sudoeste 26 Sudoeste 0 -- -- 24
2019-08-24 14:00:00 34.6 10 Sudoeste 21 Sudoeste 0 -- -- 26
2019-08-24 13:00:00 33.1 11 Sudeste 19 Sudeste 0 -- -- 28
2019-08-24 12:00:00 30.7 8 Sur 18 Sudeste 0 -- -- 32
2019-08-24 11:00:00 29 8 Sudeste 13 Este 0 -- -- 34
2019-08-24 10:00:00 26.6 9 Sur 17 Sudeste 0 -- -- 36
2019-08-24 09:00:00 23.3 8 Sudeste 14 Sudeste 0 -- -- 37
2019-08-24 08:00:00 20.1 5 Sudeste 11 Sudeste 0 -- -- 39
2019-08-24 07:00:00 21.5 9 Sudeste 16 Sudeste 0 -- -- 36
2019-08-24 06:00:00 20.5 5 Sudeste 8 Sudeste 0 -- -- 39
2019-08-24 05:00:00 22.1 2 Este 8 Norte 0 -- -- 38
2019-08-24 04:00:00 23.8 5 Norte 27 Sudoeste 0 -- -- 35
2019-08-24 03:00:00 25.5 9 Sur 23 Sudoeste 0 -- -- 29
2019-08-24 02:00:00 26.3 0 Calma 6 Nordeste 0 -- -- 28
2019-08-24 01:00:00 24.1 0 Calma 4 Noroeste 0 -- -- 34
2019-08-24 00:00:00 24.7 0 Calma 9 Sudeste 0 -- -- 34
2019-08-23 23:00:00 28.1 8 Sudeste 14 Sur 0 -- -- 30
2019-08-23 22:00:00 29.7 7 Nordeste 11 Nordeste 0 -- -- 27
2019-08-23 21:00:00 32.1 8 Nordeste 15 Este 0 -- -- 25
2019-08-23 20:00:00 35.1 9 Sudeste 21 Sudeste 0 -- -- 23
2019-08-23 19:00:00 35.7 5 Nordeste 21 Noroeste 0 -- -- 23
2019-08-23 18:00:00 36.1 8 Nordeste 25 Este 0 -- -- 23
2019-08-23 17:00:00 34.8 11 Este 23 Este 0 -- -- 24
2019-08-23 16:00:00 35.7 11 Sudeste 25 Este 0 -- -- 27
2019-08-23 15:00:00 34.4 12 Sudeste 23 Sudeste 0 -- -- 30
2019-08-23 14:00:00 33.8 12 Sudeste 27 Sudeste 0 -- -- 32
2019-08-23 13:00:00 32.4 12 Sudeste 26 Sur 0 -- -- 33
2019-08-23 12:00:00 31 11 Sudeste 25 Sur 0 -- -- 34
2019-08-23 11:00:00 29.4 15 Sur 27 Sur 0 -- -- 37
2019-08-23 10:00:00 27.5 15 Sudeste 21 Sudeste 0 -- -- 42
2019-08-23 09:00:00 24.1 10 Sudeste 15 Sudeste 0 -- -- 55
2019-08-23 08:00:00 18.6 8 Sudeste 10 Sudeste 0 -- -- 59
2019-08-23 07:00:00 19.1 3 Sudeste 12 Sudeste 0 -- -- 52
2019-08-23 06:00:00 21.3 2 Este 13 Sudeste 0 -- -- 45
2019-08-23 05:00:00 23.4 12 Sudeste 21 Sudeste 0 -- -- 41
2019-08-23 04:00:00 24.5 13 Sudeste 16 Sudeste 0 -- -- 32
2019-08-23 03:00:00 26.3 11 Sur 17 Sur 0 -- -- 30
2019-08-23 02:00:00 27.4 11 Sudoeste 19 Sudoeste 0 -- -- 30
2019-08-23 01:00:00 27.3 5 Nordeste 15 Nordeste 0 -- -- 30
2019-08-23 00:00:00 28.6 10 Nordeste 19 Nordeste 0 -- -- 28